Time;durP1;ratioP1;P1;durP2;ratioP2;P2;SDS_P1;SDS_P2;PMS_P1;PMS_P2;Temp;Humidity;BMP_temperature;BMP_pressure;BME280_temperature;BME280_humidity;BME280_pressure;Samples;Min_cycle;Max_cycle;Signal;HPM_P1;HPM_P2
2022/06/16 00:01:57;;;;;;;5.32;4.18;;;;;;;;;;5039426;28;20111;-78
2022/06/16 00:04:24;;;;;;;5.97;4.00;;;;;;;;;;5038893;28;20196;-78
2022/06/16 00:06:51;;;;;;;6.78;4.05;;;;;;;;;;5039059;28;20025;-78
2022/06/16 00:09:17;;;;;;;4.50;3.88;;;;;;;;;;5039081;28;20033;-78
2022/06/16 00:11:43;;;;;;;8.60;3.97;;;;;;;;;;5038989;28;20132;-78
2022/06/16 00:14:10;;;;;;;6.22;4.18;;;;;;;;;;5039045;28;20036;-79
2022/06/16 00:16:36;;;;;;;8.00;4.45;;;;;;;;;;5038886;28;20034;-79
2022/06/16 00:19:03;;;;;;;8.00;3.95;;;;;;;;;;5039007;28;20033;-78
2022/06/16 00:21:29;;;;;;;5.40;3.97;;;;;;;;;;5038906;28;20031;-77
2022/06/16 00:23:55;;;;;;;4.85;3.95;;;;;;;;;;5038942;28;20048;-78
2022/06/16 00:26:23;;;;;;;5.75;3.95;;;;;;;;;;5038594;28;20392;-77
2022/06/16 00:28:49;;;;;;;3.67;3.30;;;;;;;;;;5039030;28;20022;-78
2022/06/16 00:31:16;;;;;;;5.45;4.13;;;;;;;;;;5039113;28;20076;-78
2022/06/16 00:33:43;;;;;;;6.07;4.18;;;;;;;;;;5038796;28;20021;-78
2022/06/16 00:36:09;;;;;;;5.53;3.92;;;;;;;;;;5021039;28;20037;-77
2022/06/16 00:38:35;;;;;;;7.47;4.32;;;;;;;;;;5038866;28;20052;-77
2022/06/16 00:41:02;;;;;;;5.45;3.80;;;;;;;;;;5038546;28;20472;-78
2022/06/16 00:43:28;;;;;;;6.65;4.32;;;;;;;;;;5039012;28;20033;-77
2022/06/16 00:45:56;;;;;;;7.05;3.78;;;;;;;;;;5038574;28;20052;-76
2022/06/16 00:48:25;;;;;;;5.15;3.72;;;;;;;;;;5038918;28;20083;-77
2022/06/16 00:50:54;;;;;;;8.70;4.13;;;;;;;;;;5036824;28;20025;-76
2022/06/16 00:53:20;;;;;;;6.60;3.67;;;;;;;;;;5035731;28;20029;-78
2022/06/16 00:55:46;;;;;;;6.35;3.85;;;;;;;;;;5035110;28;20380;-78
2022/06/16 00:58:12;;;;;;;5.55;3.83;;;;;;;;;;5035540;28;20021;-79
2022/06/16 01:00:44;;;;;;;5.60;4.00;;;;;;;;;;5035628;28;20387;-78
2022/06/16 01:03:10;;;;;;;6.40;4.20;;;;;;;;;;5035373;28;20025;-77
2022/06/16 01:05:36;;;;;;;5.22;3.90;;;;;;;;;;5035411;28;20058;-78
2022/06/16 01:08:04;;;;;;;6.25;4.07;;;;;;;;;;5035270;28;20111;-78
2022/06/16 01:10:33;;;;;;;6.70;3.95;;;;;;;;;;5035012;28;20033;-78
2022/06/16 01:16:22;;;;;;;5.88;3.90;;;;;;;;;;5035254;28;20518;-77
2022/06/16 01:18:48;;;;;;;5.32;3.85;;;;;;;;;;5035531;28;20033;-78
2022/06/16 01:21:33;;;;;;;8.60;4.05;;;;;;;;;;5017213;28;20041;-77
2022/06/16 01:24:18;;;;;;;6.75;4.03;;;;;;;;;;5035120;28;20030;-78
2022/06/16 01:26:59;;;;;;;25.33;5.53;;;;;;;;;;5034890;28;20021;-79
2022/06/16 01:29:54;;;;;;;7.35;4.00;;;;;;;;;;5035408;28;20025;-79
2022/06/16 01:32:26;;;;;;;5.70;3.53;;;;;;;;;;4954792;29;20489;-78
2022/06/16 01:35:01;;;;;;;5.80;3.92;;;;;;;;;;4954362;28;20106;-78
2022/06/16 01:37:40;;;;;;;5.82;3.67;;;;;;;;;;4954555;28;20102;-78
2022/06/16 01:40:13;;;;;;;4.25;3.67;;;;;;;;;;4954522;29;20027;-77
2022/06/16 01:42:49;;;;;;;4.75;3.83;;;;;;;;;;4954554;29;20155;-78
2022/06/16 01:45:25;;;;;;;4.97;3.88;;;;;;;;;;4954532;29;20122;-78
2022/06/16 01:47:52;;;;;;;6.22;3.58;;;;;;;;;;4954557;28;20030;-71
2022/06/16 01:50:23;;;;;;;4.50;3.53;;;;;;;;;;4954380;29;20147;-74
2022/06/16 01:53:03;;;;;;;4.80;3.72;;;;;;;;;;4954433;28;20027;-78
2022/06/16 01:55:31;;;;;;;5.85;3.88;;;;;;;;;;4954259;29;20055;-77
2022/06/16 01:58:01;;;;;;;4.90;3.80;;;;;;;;;;4954232;29;20093;-78
2022/06/16 02:00:27;;;;;;;4.75;3.85;;;;;;;;;;4954220;29;20031;-78
2022/06/16 02:02:59;;;;;;;5.35;4.13;;;;;;;;;;4953662;28;20442;-78
2022/06/16 02:05:30;;;;;;;5.53;4.32;;;;;;;;;;4954027;29;20069;-78
2022/06/16 02:08:03;;;;;;;6.18;3.97;;;;;;;;;;4967753;28;20033;-77
2022/06/16 02:10:32;;;;;;;8.50;3.88;;;;;;;;;;5034360;28;20033;-77
2022/06/16 02:12:59;;;;;;;5.63;3.85;;;;;;;;;;5034004;28;20013;-78
2022/06/16 02:15:28;;;;;;;5.10;3.67;;;;;;;;;;5033947;28;20091;-78
2022/06/16 02:17:55;;;;;;;7.75;4.22;;;;;;;;;;5033878;28;20101;-78
2022/06/16 02:20:21;;;;;;;6.85;4.20;;;;;;;;;;5034046;28;20064;-78
2022/06/16 02:22:48;;;;;;;6.95;4.15;;;;;;;;;;5034008;28;20036;-78
2022/06/16 02:25:14;;;;;;;4.80;3.70;;;;;;;;;;5033784;28;20038;-77
2022/06/16 02:27:40;;;;;;;4.05;3.55;;;;;;;;;;5033991;28;20029;-78
2022/06/16 02:30:06;;;;;;;6.20;3.85;;;;;;;;;;5033625;28;20028;-78
2022/06/16 02:32:32;;;;;;;4.50;3.42;;;;;;;;;;5033802;28;20032;-78
2022/06/16 02:35:07;;;;;;;4.70;3.85;;;;;;;;;;5033734;28;20029;-78
2022/06/16 02:37:36;;;;;;;6.80;4.15;;;;;;;;;;5033650;28;20040;-78
2022/06/16 02:40:12;;;;;;;5.30;3.63;;;;;;;;;;5033599;28;20490;-78
2022/06/16 02:42:44;;;;;;;4.30;3.90;;;;;;;;;;5033649;28;20063;-78
2022/06/16 02:45:22;;;;;;;6.53;3.75;;;;;;;;;;5033481;28;20557;-78
2022/06/16 02:47:57;;;;;;;5.72;4.00;;;;;;;;;;5033538;28;20022;-78
2022/06/16 02:50:26;;;;;;;5.07;3.72;;;;;;;;;;5033579;28;20029;-77
2022/06/16 02:53:00;;;;;;;4.88;3.80;;;;;;;;;;5033344;28;20080;-78
2022/06/16 02:55:31;;;;;;;5.70;4.10;;;;;;;;;;5033134;28;20033;-78
2022/06/16 02:57:59;;;;;;;9.52;4.32;;;;;;;;;;5033223;28;20020;-78
2022/06/16 03:00:28;;;;;;;6.93;3.92;;;;;;;;;;5033348;28;20460;-76
2022/06/16 03:02:54;;;;;;;9.90;5.25;;;;;;;;;;5033085;28;20056;-78
2022/06/16 03:05:20;;;;;;;5.45;4.05;;;;;;;;;;5033549;28;20388;-78
2022/06/16 03:07:47;;;;;;;7.40;3.90;;;;;;;;;;5033158;28;20095;-78
2022/06/16 03:10:14;;;;;;;11.63;4.28;;;;;;;;;;5033031;28;20021;-76
2022/06/16 03:12:40;;;;;;;4.85;4.00;;;;;;;;;;5033181;28;20025;-78
2022/06/16 03:15:07;;;;;;;6.70;4.20;;;;;;;;;;5032477;28;20104;-78
2022/06/16 03:17:33;;;;;;;5.10;4.32;;;;;;;;;;5032996;28;20039;-78
2022/06/16 03:19:59;;;;;;;4.03;3.63;;;;;;;;;;5015196;28;20574;-78
2022/06/16 03:22:25;;;;;;;7.53;4.40;;;;;;;;;;5015534;28;20033;-77
2022/06/16 03:24:51;;;;;;;6.97;4.10;;;;;;;;;;5032675;28;20033;-78
2022/06/16 03:27:18;;;;;;;5.43;4.03;;;;;;;;;;5032849;28;20029;-78
2022/06/16 03:29:44;;;;;;;6.57;4.05;;;;;;;;;;5032794;28;20030;-75
2022/06/16 03:32:10;;;;;;;5.63;3.90;;;;;;;;;;5033029;28;20485;-78
2022/06/16 03:34:36;;;;;;;11.60;4.60;;;;;;;;;;5033137;28;20029;-78
2022/06/16 03:37:03;;;;;;;8.63;4.53;;;;;;;;;;5014878;28;20063;-78
2022/06/16 03:39:29;;;;;;;8.68;4.80;;;;;;;;;;5032657;28;20025;-78
2022/06/16 03:41:56;;;;;;;8.32;4.57;;;;;;;;;;5014953;28;20402;-72
2022/06/16 03:44:22;;;;;;;6.53;3.83;;;;;;;;;;5032557;28;20026;-75
2022/06/16 03:46:48;;;;;;;8.32;4.78;;;;;;;;;;5032639;28;20029;-77
2022/06/16 03:49:14;;;;;;;5.60;4.13;;;;;;;;;;5032567;28;20021;-78
2022/06/16 03:51:40;;;;;;;7.90;4.22;;;;;;;;;;5032792;28;20060;-78
2022/06/16 03:54:06;;;;;;;7.07;4.30;;;;;;;;;;5032363;28;20415;-78
2022/06/16 03:56:32;;;;;;;7.70;4.75;;;;;;;;;;5032617;28;20030;-78
2022/06/16 03:58:58;;;;;;;11.52;6.65;;;;;;;;;;5032657;28;20515;-76
2022/06/16 04:01:24;;;;;;;8.63;5.20;;;;;;;;;;5032444;28;20037;-77
2022/06/16 04:03:59;;;;;;;8.88;5.22;;;;;;;;;;5032491;28;20042;-78
2022/06/16 04:06:25;;;;;;;9.00;4.60;;;;;;;;;;5032497;28;20533;-76
2022/06/16 04:08:52;;;;;;;8.70;5.25;;;;;;;;;;5032447;28;20021;-78
2022/06/16 04:11:27;;;;;;;11.95;5.93;;;;;;;;;;5014472;28;20056;-78
2022/06/16 04:14:01;;;;;;;8.90;4.50;;;;;;;;;;5032410;28;20033;-78
2022/06/16 04:16:28;;;;;;;7.78;5.28;;;;;;;;;;5032489;28;20081;-77
2022/06/16 04:18:55;;;;;;;9.48;4.53;;;;;;;;;;5032819;28;20026;-78
2022/06/16 04:21:21;;;;;;;6.63;4.93;;;;;;;;;;5032360;28;20030;-77
2022/06/16 04:23:47;;;;;;;7.40;5.00;;;;;;;;;;5032471;28;20100;-79
2022/06/16 04:26:13;;;;;;;7.60;4.93;;;;;;;;;;5032660;28;20025;-75
2022/06/16 04:28:39;;;;;;;8.45;4.68;;;;;;;;;;5036203;28;20013;-77
2022/06/16 04:31:05;;;;;;;9.70;5.38;;;;;;;;;;5036311;28;20025;-77
2022/06/16 04:33:31;;;;;;;8.07;4.90;;;;;;;;;;5036263;28;20017;-77
2022/06/16 04:35:57;;;;;;;9.45;4.72;;;;;;;;;;5035852;28;20034;-77
2022/06/16 04:38:23;;;;;;;8.10;4.45;;;;;;;;;;5035794;28;20026;-78
2022/06/16 04:40:50;;;;;;;8.10;5.43;;;;;;;;;;5035708;28;20032;-76
2022/06/16 04:43:17;;;;;;;7.25;5.45;;;;;;;;;;5036151;28;20053;-78
2022/06/16 04:45:43;;;;;;;14.48;7.45;;;;;;;;;;5035716;28;20025;-78
2022/06/16 04:48:10;;;;;;;16.75;9.68;;;;;;;;;;5035640;28;20022;-77
2022/06/16 04:50:36;;;;;;;17.40;8.00;;;;;;;;;;5035682;28;20060;-78
2022/06/16 04:53:02;;;;;;;15.15;6.63;;;487.20;2201.60;;;;;;5035503;28;20097;-78
2022/06/16 04:55:28;;;;;;;9.30;5.05;;;487.20;2201.60;;;;;;5035643;28;20031;-78
2022/06/16 04:57:54;;;;;;;6.55;4.82;;;487.30;2176.00;;;;;;5035446;28;20030;-72
2022/06/16 05:00:21;;;;;;;10.10;6.18;;;;;;;;;;5035488;28;20061;-78
2022/06/16 05:02:47;;;;;;;13.52;6.00;;;;;;;;;;5035450;28;20053;-80
2022/06/16 05:05:14;;;;;;;11.77;5.78;;;;;;;;;;5035292;28;20112;-79
2022/06/16 05:07:40;;;;;;;8.65;6.43;;;;;;;;;;5035272;28;20065;-78
2022/06/16 05:10:06;;;;;;;14.98;6.30;;;512.30;2176.00;;;;;;5035443;28;20014;-76
2022/06/16 05:12:32;;;;;;;11.43;7.00;;;512.20;2176.00;;;;;;5035189;28;20030;-72
2022/06/16 05:14:57;;;;;;;13.23;6.72;;;512.30;2176.00;;;;;;5035507;28;20097;-80
2022/06/16 05:17:23;;;;;;;10.20;5.93;;;512.30;2176.00;;;;;;5035140;28;20040;-78
2022/06/16 05:19:49;;;;;;;13.43;6.38;;;512.40;2176.00;;;;;;5035132;28;20022;-78
2022/06/16 05:22:15;;;;;;;15.10;6.85;;;;;;;;;;5035069;28;20021;-78
2022/06/16 05:24:41;;;;;;;14.10;6.88;;;;;;;;;;5034728;28;20104;-71
2022/06/16 05:27:07;;;;;;;24.38;7.82;;;;;;;;;;5034935;28;20021;-78
2022/06/16 05:29:33;;;;;;;22.45;7.20;;;;;;;;;;5034955;28;20030;-78
2022/06/16 05:31:59;;;;;;;16.65;7.43;;;;;;;;;;5034683;28;20487;-78
2022/06/16 05:34:26;;;;;;;19.63;9.57;;;;;;;;;;5017314;28;20080;-78
2022/06/16 05:36:52;;;;;;;17.67;7.85;;;;;;;;;;5034246;28;20038;-78
2022/06/16 05:39:18;;;;;;;23.77;8.90;;;;;;;;;;5034570;28;20025;-77
2022/06/16 05:41:45;;;;;;;25.88;9.20;;;;;;;;;;5016917;28;20037;-78
2022/06/16 05:44:12;;;;;;;16.65;8.00;;;;;;;;;;5034634;28;20155;-79
2022/06/16 05:46:40;;;;;;;30.80;8.82;;;;;;;;;;5034663;28;20026;-78
2022/06/16 05:49:06;;;;;;;24.08;8.85;;;;;;;;;;5034726;28;20037;-78
2022/06/16 05:51:33;;;;;;;35.83;9.88;;;;;;;;;;5034625;28;20030;-78
2022/06/16 05:53:58;;;;;;;21.60;8.32;;;537.90;2150.40;;;;;;5034511;28;20095;-70
2022/06/16 05:56:24;;;;;;;18.70;8.10;;;538.00;2150.40;;;;;;5034308;28;20476;-79
2022/06/16 05:58:50;;;;;;;17.33;8.40;;;538.00;2176.00;;;;;;5034065;28;20029;-78
2022/06/16 06:01:16;;;;;;;12.50;8.23;;;;;;;;;;5033794;28;20079;-78
2022/06/16 06:03:43;;;;;;;16.75;8.20;;;;;;;;;;5034053;28;20028;-78
2022/06/16 06:06:09;;;;;;;18.75;8.02;;;;;;;;;;5034205;28;20496;-74
2022/06/16 06:16:55;;;;;;;16.15;7.93;;;;;;;;;;5033831;28;20122;-79
2022/06/16 06:19:24;;;;;;;21.70;8.07;;;;;;;;;;5034190;28;20030;-76
2022/06/16 06:22:06;;;;;;;14.50;8.00;;;;;;;;;;5033945;28;20018;-78
2022/06/16 06:24:32;;;;;;;13.70;7.50;;;;;;;;;;5033638;28;20018;-78
2022/06/16 06:27:01;;;;;;;14.15;6.30;;;563.30;2150.40;;;;;;5033613;28;20418;-79
2022/06/16 06:29:27;;;;;;;20.65;7.03;;;563.40;2150.40;;;;;;5033766;28;20024;-79
2022/06/16 06:31:53;;;;;;;13.48;6.32;;;563.40;2150.40;;;;;;5033523;28;20040;-79
2022/06/16 06:34:19;;;;;;;11.57;6.05;;;563.50;2150.40;;;;;;5033929;28;20460;-78
2022/06/16 06:36:45;;;;;;;18.65;6.05;;;563.50;2124.80;;;;;;5015916;28;20579;-79
2022/06/16 06:39:12;;;;;;;11.95;5.60;;;;;;;;;;5033332;28;20108;-79
2022/06/16 06:41:38;;;;;;;10.27;5.57;;;;;;;;;;5033456;28;20029;-71
2022/06/16 06:44:05;;;;;;;19.25;5.93;;;;;;;;;;5033376;28;20021;-71
2022/06/16 06:46:31;;;;;;;14.07;5.15;;;;;;;;;;5033377;28;20026;-78
2022/06/16 06:48:57;;;;;;;13.63;5.90;;;;;;;;;;5032427;28;20033;-79
2022/06/16 06:51:23;;;;;;;50.40;8.57;;;;;;;;;;5033606;28;20025;-79
2022/06/16 06:53:49;;;;;;;19.60;6.85;;;;;;;;;;5033525;28;20079;-79
2022/06/16 06:56:15;;;;;;;23.60;6.65;;;;;;;;;;5032962;28;20488;-78
2022/06/16 06:58:41;;;;;;;16.95;6.53;;;;;;;;;;5033198;28;20033;-71
2022/06/16 07:01:07;;;;;;;14.32;7.25;;;;;;;;;;5033060;28;20026;-70
2022/06/16 07:03:34;;;;;;;19.15;6.80;;;;;;;;;;5033116;28;20028;-78
2022/06/16 07:06:04;;;;;;;15.30;5.82;;;;;;;;;;5033221;28;20383;-78
2022/06/16 07:08:31;;;;;;;10.13;5.63;;;;;;;;;;5033206;28;20025;-71
2022/06/16 07:10:57;;;;;;;40.85;8.52;;;;;;;;;;5033464;28;20033;-77
2022/06/16 07:13:24;;;;;;;11.05;6.00;;;;;;;;;;5032891;28;20029;-77
2022/06/16 07:15:50;;;;;;;17.95;7.28;;;;;;;;;;5015032;28;20411;-78
2022/06/16 07:18:16;;;;;;;27.33;7.95;;;;;;;;;;5032868;28;20021;-78
2022/06/16 07:20:42;;;;;;;28.38;8.40;;;;;;;;;;5033049;28;20056;-78
2022/06/16 07:23:08;;;;;;;23.80;7.40;;;;;;;;;;5032804;28;20101;-76
2022/06/16 07:25:34;;;;;;;19.13;7.28;;;;;;;;;;5032609;28;20167;-72
2022/06/16 07:28:01;;;;;;;18.63;5.72;;;;;;;;;;5032671;28;20108;-78
2022/06/16 07:30:27;;;;;;;28.88;8.10;;;614.50;1945.60;;;;;;5014808;28;20435;-78
2022/06/16 07:32:53;;;;;;;11.32;5.60;;;614.60;1971.20;;;;;;5032838;28;20353;-78
2022/06/16 07:35:22;;;;;;;8.50;5.40;;;;;;;;;;5031863;28;20026;-78
2022/06/16 07:37:49;;;;;;;22.02;6.20;;;;;;;;;;5032899;28;20096;-77
2022/06/16 07:40:16;;;;;;;25.13;6.75;;;;;;;;;;5032723;28;20376;-78
2022/06/16 07:42:44;;;;;;;13.52;5.95;;;;;;;;;;5032462;28;20018;-71
2022/06/16 07:45:10;;;;;;;18.83;5.88;;;;;;;;;;5032552;28;20021;-76
2022/06/16 07:47:36;;;;;;;8.13;4.32;;;;;;;;;;5032569;28;20147;-70
2022/06/16 07:50:04;;;;;;;34.38;6.03;;;;;;;;;;5032657;28;20025;-78
2022/06/16 07:52:30;;;;;;;10.77;4.53;;;;;;;;;;5032612;28;20049;-74
2022/06/16 07:54:56;;;;;;;41.53;7.72;;;;;;;;;;5032476;28;20022;-77
2022/06/16 07:57:26;;;;;;;15.70;4.82;;;;;;;;;;5032316;28;20029;-71
2022/06/16 07:59:52;;;;;;;55.42;8.40;;;;;;;;;;5032581;28;20013;-71
2022/06/16 08:02:18;;;;;;;19.02;5.72;;;;;;;;;;5036409;28;20062;-78
2022/06/16 08:04:44;;;;;;;15.13;5.35;;;;;;;;;;5036345;28;20100;-77
2022/06/16 08:07:10;;;;;;;12.40;4.30;;;;;;;;;;5018608;28;20049;-76
2022/06/16 08:09:38;;;;;;;22.77;5.78;;;;;;;;;;5036244;28;20483;-70
2022/06/16 08:12:04;;;;;;;12.85;4.85;;;;;;;;;;5036260;28;20021;-78
2022/06/16 08:14:31;;;;;;;22.40;5.32;;;;;;;;;;5036170;28;20052;-79
2022/06/16 08:16:58;;;;;;;13.10;4.38;;;;;;;;;;5036190;28;20060;-71
2022/06/16 08:19:24;;;;;;;7.10;3.63;;;;;;;;;;5036448;28;20400;-78
2022/06/16 08:21:50;;;;;;;8.85;3.85;;;;;;;;;;5036301;28;20518;-79
2022/06/16 08:24:17;;;;;;;16.17;4.25;;;;;;;;;;5036470;28;20410;-79
2022/06/16 08:26:44;;;;;;;10.98;4.13;;;;;;;;;;5035767;28;20104;-76
2022/06/16 08:29:11;;;;;;;13.10;4.18;;;;;;;;;;5035910;28;20026;-79
2022/06/16 08:31:37;;;;;;;14.02;4.18;;;;;;;;;;5036053;28;20202;-79
2022/06/16 08:34:03;;;;;;;16.65;4.22;;;;;;;;;;5036289;28;20021;-79
2022/06/16 08:36:30;;;;;;;4.78;3.40;;;;;;;;;;5035812;28;20037;-70
2022/06/16 08:38:56;;;;;;;45.35;6.78;;;;;;;;;;5036151;28;20028;-75
2022/06/16 08:41:25;;;;;;;10.70;3.97;;;;;;;;;;5035882;28;20384;-79
2022/06/16 08:43:58;;;;;;;10.95;3.83;;;;;;;;;;5017944;28;20377;-80
2022/06/16 08:46:27;;;;;;;14.68;4.00;;;;;;;;;;5035682;28;20057;-79
2022/06/16 08:49:06;;;;;;;14.98;5.32;;;;;;;;;;5035573;28;20096;-78
2022/06/16 08:51:42;;;;;;;10.02;3.42;;;;;;;;;;5035678;28;20112;-77
2022/06/16 08:54:08;;;;;;;11.75;4.90;;;;;;;;;;5035483;28;20104;-78
2022/06/16 08:56:43;;;;;;;5.68;3.80;;;;;;;;;;5035233;28;20515;-78
2022/06/16 08:59:23;;;;;;;7.78;3.53;;;;;;;;;;5035436;28;20084;-78
2022/06/16 09:01:55;;;;;;;6.40;4.80;;;;;;;;;;5035355;28;20034;-71
2022/06/16 09:04:24;;;;;;;8.73;4.20;;;;;;;;;;5035214;28;20042;-79
2022/06/16 09:06:50;;;;;;;9.23;4.57;;;;;;;;;;5035372;28;20022;-78
2022/06/16 09:10:14;;;;;;;7.40;4.40;;;;;;;;;;5034909;28;20029;-78
2022/06/16 09:12:05;;;;;;;11.48;4.75;;;;;;;;;;5034393;28;20018;-79
2022/06/16 09:17:43;;;;;;;58.08;8.43;;;;;;;;;;5035045;28;20545;-80
2022/06/16 09:20:09;;;;;;;22.52;5.90;;;;;;;;;;5035225;28;20419;-80
2022/06/16 09:22:47;;;;;;;6.43;4.13;;;;;;;;;;5035039;28;20033;-70
2022/06/16 09:25:16;;;;;;;6.80;3.70;;;;;;;;;;5034767;28;20071;-80
2022/06/16 09:27:45;;;;;;;5.22;3.45;;;;;;;;;;5034911;28;20029;-78
2022/06/16 09:30:19;;;;;;;10.02;3.70;;;;;;;;;;5034711;28;20032;-80
2022/06/16 09:32:58;;;;;;;7.60;3.55;;;;;;;;;;5034938;28;20034;-79
2022/06/16 09:35:27;;;;;;;16.63;5.05;;;;;;;;;;5034733;28;20037;-79
2022/06/16 09:38:11;;;;;;;6.40;3.67;;;;;;;;;;5034783;28;20025;-72
2022/06/16 09:40:49;;;;;;;11.73;3.88;;;;;;;;;;5034365;28;20025;-70
2022/06/16 09:43:15;;;;;;;5.28;3.42;;;;;;;;;;5034616;28;20091;-70
2022/06/16 09:45:53;;;;;;;8.00;3.85;;;;;;;;;;5034543;28;20024;-80
2022/06/16 09:48:22;;;;;;;8.32;4.20;;;;;;;;;;5034660;28;20128;-79
2022/06/16 09:50:53;;;;;;;8.30;3.60;;;;;;;;;;5034550;28;20022;-79
2022/06/16 09:53:48;;;;;;;11.10;4.33;;;;;;;;;;5034405;28;20034;-79
2022/06/16 09:56:17;;;;;;;6.63;3.70;;;;;;;;;;4954006;28;20579;-74
2022/06/16 09:58:57;;;;;;;7.90;3.70;;;;;;;;;;4954150;29;20102;-80
2022/06/16 10:01:24;;;;;;;6.30;3.50;;;;;;;;;;4954133;29;20038;-78
2022/06/16 10:03:58;;;;;;;5.40;3.65;;;;;;;;;;4953469;28;20078;-77
2022/06/16 10:06:24;;;;;;;6.03;3.20;;;;;;;;;;4953993;29;20051;-73
2022/06/16 10:08:53;;;;;;;6.93;3.38;;;;;;;;;;4954242;29;20042;-78
2022/06/16 10:11:26;;;;;;;10.52;4.32;;;;;;;;;;4953843;29;20038;-78
2022/06/16 10:14:02;;;;;;;5.60;3.90;;;;;;;;;;4953763;29;20129;-79
2022/06/16 10:16:37;;;;;;;9.40;4.18;;;;;;;;;;4953469;28;20062;-78
2022/06/16 10:19:03;;;;;;;5.03;3.40;;;;;;;;;;4953956;28;20063;-77
2022/06/16 10:21:29;;;;;;;10.27;4.35;;;;;;;;;;4953719;29;20102;-80
2022/06/16 10:23:56;;;;;;;11.88;4.90;;;;;;;;;;4953680;28;20607;-80
2022/06/16 10:26:23;;;;;;;7.13;3.83;;;;;;;;;;4953499;29;20044;-70
2022/06/16 10:28:49;;;;;;;7.45;4.07;;;;;;;;;;4953676;28;20020;-79
2022/06/16 10:31:35;;;;;;;5.95;4.15;;;;;;;;;;4953482;28;20445;-70
2022/06/16 10:34:02;;;;;;;4.82;3.42;;;;;;;;;;5033654;28;20027;-78
2022/06/16 10:36:28;;;;;;;5.45;3.58;;;;;;;;;;5033654;28;20033;-79
2022/06/16 10:39:05;;;;;;;6.90;3.88;;;;;;;;;;5015936;28;20442;-80
2022/06/16 10:41:41;;;;;;;7.63;3.50;;;;;;;;;;5033446;28;20037;-80
2022/06/16 10:44:11;;;;;;;5.65;3.40;;;;;;;;;;5015533;28;20038;-73
2022/06/16 10:46:44;;;;;;;11.55;9.40;;;;;;;;;;5033543;28;20353;-80
2022/06/16 10:49:15;;;;;;;7.75;5.25;;;;;;;;;;5033447;28;20018;-77
2022/06/16 10:51:51;;;;;;;4.35;3.38;;;;;;;;;;5034075;28;20376;-80
2022/06/16 10:54:22;;;;;;;6.00;3.65;;;;;;;;;;5033160;28;20024;-79
2022/06/16 10:56:48;;;;;;;;;;;;;;;;;;5033816;28;20068;-80
2022/06/16 10:59:14;;;;;;;23.20;6.15;;;;;;;;;;5033105;28;20318;-79
2022/06/16 11:02:01;;;;;;;24.73;5.63;;;;;;;;;;5033303;28;20427;-80
2022/06/16 11:04:38;;;;;;;24.95;5.93;;;;;;;;;;5032834;28;20045;-76
2022/06/16 11:07:04;;;;;;;7.30;4.30;;;;;;;;;;5015443;28;20566;-78
2022/06/16 11:09:32;;;;;;;7.25;3.55;;;;;;;;;;5032954;28;20472;-80
2022/06/16 11:12:00;;;;;;;6.22;3.65;;;;;;;;;;5015388;28;20032;-80
2022/06/16 11:14:35;;;;;;;5.82;3.50;;;;;;;;;;5032625;28;20048;-80
2022/06/16 11:17:06;;;;;;;30.05;6.68;;;;;;;;;;5032964;28;20041;-79
2022/06/16 11:19:44;;;;;;;28.13;5.35;;;;;;;;;;5032703;28;20079;-80
2022/06/16 11:22:34;;;;;;;12.90;4.75;;;;;;;;;;5033078;28;20024;-80
2022/06/16 11:25:26;;;;;;;8.88;3.60;;;;;;;;;;4952912;28;20047;-80
2022/06/16 11:27:57;;;;;;;20.15;4.97;;;;;;;;;;4950042;29;20127;-80
2022/06/16 11:30:35;;;;;;;8.82;3.80;;;;;;;;;;4952849;29;20110;-80
2022/06/16 11:33:02;;;;;;;6.85;4.20;;;;;;;;;;4936364;28;20062;-76
2022/06/16 11:35:33;;;;;;;7.47;3.95;;;;;;;;;;4952058;28;20453;-81
2022/06/16 11:38:17;;;;;;;12.18;3.70;;;;;;;;;;4952719;28;20114;-71
2022/06/16 11:40:48;;;;;;;7.82;3.20;;;;;;;;;;4936499;29;20027;-80
2022/06/16 11:43:17;;;;;;;8.25;3.80;;;;;;;;;;4952483;29;20045;-77
2022/06/16 11:45:45;;;;;;;8.32;3.47;;;;;;;;;;4952504;29;20027;-80
2022/06/16 11:48:22;;;;;;;10.50;4.40;;;;;;;;;;4952572;29;20078;-79
2022/06/16 11:50:49;;;;;;;12.63;3.83;;;;;;;;;;4952624;29;20102;-73
2022/06/16 11:53:34;;;;;;;19.58;5.00;;;;;;;;;;4952569;29;20038;-71
2022/06/16 11:56:18;;;;;;;5.95;3.33;;;;;;;;;;4952403;29;20046;-81
2022/06/16 11:58:44;;;;;;;5.45;3.17;;;;;;;;;;4952429;28;20046;-77
2022/06/16 12:01:29;;;;;;;5.30;3.13;;;;;;;;;;4966500;28;20044;-69
2022/06/16 12:04:13;;;;;;;6.13;3.28;;;;;;;;;;5032407;28;20037;-77
2022/06/16 12:06:59;;;;;;;7.07;3.22;;;;;;;;;;5019926;28;20029;-80
2022/06/16 12:09:34;;;;;;;8.00;3.70;;;;;;;;;;5014627;28;20034;-77
2022/06/16 12:12:00;;;;;;;18.52;4.88;;;;;;;;;;5032325;28;20380;-70
2022/06/16 12:14:46;;;;;;;52.47;7.47;;;;;;;;;;5032224;28;20030;-80
2022/06/16 12:17:18;;;;;;;8.02;4.32;;;;;;;;;;4952215;29;20138;-74
2022/06/16 12:20:02;;;;;;;6.93;3.95;;;;;;;;;;4952118;29;20047;-71
2022/06/16 12:22:38;;;;;;;7.25;3.70;;;;;;;;;;4952189;29;20043;-80
2022/06/16 12:25:07;;;;;;;13.10;3.92;;;;;;;;;;4952245;29;20019;-74
2022/06/16 12:27:45;;;;;;;28.67;4.97;;;;;;;;;;4952317;29;20035;-79
2022/06/16 12:30:25;;;;;;;5.82;3.67;;;;;;;;;;4935715;29;20031;-79
2022/06/16 12:32:54;;;;;;;7.80;3.30;;;;;;;;;;4951988;28;20038;-79
2022/06/16 12:35:40;;;;;;;8.48;3.92;;;;;;;;;;4951991;29;20035;-80
2022/06/16 12:38:12;;;;;;;12.55;4.53;;;;;;;;;;4952341;28;20032;-80
2022/06/16 12:40:42;;;;;;;6.30;3.55;;;;;;;;;;4951838;29;20039;-80
2022/06/16 12:43:11;;;;;;;9.95;4.75;;;;;;;;;;4952078;29;20023;-79
2022/06/16 12:45:42;;;;;;;8.45;4.10;;;;;;;;;;4951779;29;20054;-80
2022/06/16 12:48:11;;;;;;;19.48;5.40;;;;;;;;;;4953792;28;20175;-70
2022/06/16 12:50:39;;;;;;;25.83;5.15;;;;;;;;;;4955461;28;20469;-80
2022/06/16 12:53:24;;;;;;;8.25;4.47;;;;;;;;;;4956033;28;20037;-77
2022/06/16 12:55:52;;;;;;;10.60;4.80;;;;;;;;;;5035417;28;20025;-79
2022/06/16 12:58:44;;;;;;;6.60;4.57;;;;;;;;;;5035791;28;20037;-76
2022/06/16 13:01:13;;;;;;;14.75;5.32;;;;;;;;;;5031861;28;20041;-75
2022/06/16 13:03:58;;;;;;;9.25;4.70;;;;;;;;;;5035435;28;20483;-79
2022/06/16 13:06:24;;;;;;;8.25;4.60;;;;;;;;;;5035572;28;20038;-80
2022/06/16 13:08:53;;;;;;;6.93;4.10;;;;;;;;;;5035285;28;20053;-71
2022/06/16 13:11:21;;;;;;;9.32;4.45;;;;;;;;;;5017242;28;20068;-80
2022/06/16 13:13:56;;;;;;;13.13;5.18;;;;;;;;;;5034937;28;20065;-80
2022/06/16 13:16:26;;;;;;;15.57;5.82;;;;;;;;;;5035128;28;20131;-80
2022/06/16 13:18:55;;;;;;;8.77;4.55;;;;;;;;;;5035174;28;20021;-80
2022/06/16 13:21:30;;;;;;;8.70;5.07;;;;;;;;;;5034758;28;20026;-81
2022/06/16 13:24:21;;;;;;;6.97;4.53;;;;;;;;;;5035046;28;20027;-81
2022/06/16 13:26:47;;;;;;;;;;;;;;;;;;5035197;28;20021;-80
2022/06/16 13:29:18;;;;;;;9.27;4.63;;;;;;;;;;5034800;28;20256;-76
2022/06/16 13:31:46;;;;;;;4.72;3.70;;;;;;;;;;5034586;28;20017;-69
2022/06/16 13:34:19;;;;;;;10.65;5.53;;;;;;;;;;5035083;28;20032;-80
2022/06/16 13:36:50;;;;;;;13.07;5.38;;;;;;;;;;5034721;28;20480;-75
2022/06/16 13:39:55;;;;;;;8.68;5.38;;;;;;;;;;5034630;28;20033;-70
2022/06/16 13:42:23;;;;;;;7.07;3.90;;;;;;;;;;4953970;28;20058;-70
2022/06/16 13:45:18;;;;;;;10.77;4.88;;;;;;;;;;4954492;29;20053;-80
2022/06/16 13:47:45;;;;;;;30.33;6.55;;;;;;;;;;4954344;28;20063;-81
2022/06/16 13:50:17;;;;;;;9.18;4.78;;;;;;;;;;4954638;29;20397;-81
2022/06/16 13:52:44;;;;;;;10.10;4.00;;;;;;;;;;4954057;28;20034;-74
2022/06/16 13:55:13;;;;;;;25.27;6.60;;;;;;;;;;4954373;29;20509;-72
2022/06/16 13:57:39;;;;;;;13.75;6.40;;;;;;;;;;4954159;28;20121;-81
2022/06/16 14:00:09;;;;;;;8.80;5.63;;;;;;;;;;4953988;29;20139;-70
2022/06/16 14:02:54;;;;;;;8.67;3.83;;;;;;;;;;4954264;29;20392;-79
2022/06/16 14:05:25;;;;;;;6.03;3.67;;;;;;;;;;4953854;28;20051;-69
2022/06/16 14:07:51;;;;;;;14.05;5.57;;;;;;;;;;4953857;28;20031;-78
2022/06/16 14:10:25;;;;;;;4.05;3.20;;;;;;;;;;4953875;28;20032;-77
2022/06/16 14:12:54;;;;;;;11.45;4.85;;;;;;;;;;4986764;28;20044;-79
2022/06/16 14:15:40;;;;;;;11.38;5.43;;;;;;;;;;5033910;28;20028;-73
2022/06/16 14:18:18;;;;;;;8.50;4.93;;;;;;;;;;4953426;29;20501;-79
2022/06/16 14:20:46;;;;;;;10.80;5.30;;;;;;;;;;4953949;29;20074;-79
2022/06/16 14:23:21;;;;;;;9.82;5.50;;;;;;;;;;4953722;29;20146;-79
2022/06/16 14:25:50;;;;;;;7.75;4.63;;;;;;;;;;4953825;29;20085;-69
2022/06/16 14:28:43;;;;;;;7.38;5.30;;;;;;;;;;4953605;28;20027;-69
2022/06/16 14:31:09;;;;;;;8.13;4.60;;;;;;;;;;4951575;29;20087;-81
2022/06/16 14:33:54;;;;;;;21.00;5.82;;;;;;;;;;4953464;29;20054;-81
2022/06/16 14:36:23;;;;;;;6.25;3.67;;;;;;;;;;4953597;29;20055;-81
2022/06/16 14:38:49;;;;;;;8.13;4.88;;;;;;;;;;4953444;29;20031;-70
2022/06/16 14:41:20;;;;;;;9.50;4.15;;;;;;;;;;4953561;28;20039;-81
2022/06/16 14:43:53;;;;;;;9.53;4.20;;;;;;;;;;4953164;29;20032;-81
2022/06/16 14:46:26;;;;;;;5.70;3.30;;;;;;;;;;4953529;29;20043;-80
2022/06/16 14:48:55;;;;;;;7.07;4.30;;;;;;;;;;4953453;28;20054;-80
2022/06/16 14:51:24;;;;;;;28.42;5.32;;;;;;;;;;4953583;29;20412;-81
2022/06/16 14:53:58;;;;;;;7.80;3.53;;;;;;;;;;4953249;28;20031;-80
2022/06/16 14:56:25;;;;;;;5.63;4.40;;;;;;;;;;5033445;28;20116;-77
2022/06/16 14:58:54;;;;;;;13.27;4.38;;;;;;;;;;5015683;28;20120;-79
2022/06/16 15:01:23;;;;;;;11.18;4.57;;;;;;;;;;5033498;28;20439;-81